Time;durP1;ratioP1;P1;durP2;ratioP2;P2;SDS_P1;SDS_P2;PMS_P1;PMS_P2;Temp;Humidity;BMP_temperature;BMP_pressure;BME280_temperature;BME280_humidity;BME280_pressure;Samples;Min_cycle;Max_cycle;Signal;HPM_P1;HPM_P2
2023/04/01 00:01:02;;;;;;;12.00;6.97;;;;;;;;;;5089077;28;20387;-71
2023/04/01 00:03:30;;;;;;;10.38;7.47;;;;;;;;;;5089919;28;20051;-71
2023/04/01 00:05:58;;;;;;;10.55;7.45;;;;;;;;;;5091623;28;20071;-71
2023/04/01 00:08:26;;;;;;;14.07;8.00;;;;;;;;;;5093900;28;20044;-71
2023/04/01 00:10:53;;;;;;;10.70;7.55;;;;;;;;;;5090588;28;20150;-71
2023/04/01 00:13:21;;;;;;;10.25;7.20;;;;;;;;;;5083771;28;20060;-71
2023/04/01 00:15:49;;;;;;;10.45;7.65;;;;;;;;;;5091395;28;20479;-71
2023/04/01 00:18:18;;;;;;;10.45;7.85;;;;;;;;;;5065252;28;20407;-71
2023/04/01 00:20:46;;;;;;;12.15;8.02;;;;;;;;;;5091507;28;20487;-71
2023/04/01 00:23:13;;;;;;;11.70;8.02;;;;;;;;;;5063394;28;20062;-71
2023/04/01 00:25:40;;;;;;;11.90;8.02;;;;;;;;;;5090570;28;20047;-71
2023/04/01 00:28:08;;;;;;;9.27;7.70;;;;;;;;;;5064180;28;20059;-71
2023/04/01 00:30:35;;;;;;;12.48;8.55;;;;;;;;;;5069957;28;20054;-71
2023/04/01 00:33:02;;;;;;;12.95;8.57;;;;;;;;;;5087824;28;20284;-71
2023/04/01 00:35:32;;;;;;;12.32;7.55;;;;;;;;;;5087843;28;20131;-71
2023/04/01 00:37:59;;;;;;;12.52;8.68;;;;;;;;;;5068212;28;20052;-71
2023/04/01 00:40:28;;;;;;;10.35;7.75;;;;;;;;;;5082901;28;20044;-71
2023/04/01 00:42:56;;;;;;;11.93;8.82;;;;;;;;;;5087580;28;20040;-71
2023/04/01 00:45:28;;;;;;;12.77;8.43;;;;;;;;;;5085120;28;20406;-71
2023/04/01 00:47:55;;;;;;;12.77;8.07;;;;;;;;;;5084465;28;20052;-71
2023/04/01 00:50:24;;;;;;;15.25;8.80;;;;;;;;;;5083065;28;20055;-71
2023/04/01 00:52:53;;;;;;;11.13;8.32;;;;;;;;;;5089307;28;20402;-71
2023/04/01 00:55:22;;;;;;;10.55;8.52;;;;;;;;;;5082108;28;20382;-71
2023/04/01 00:57:51;;;;;;;12.05;9.45;;;;;;;;;;5087725;28;20040;-71
2023/04/01 01:00:18;;;;;;;14.10;9.63;;;;;;;;;;5085897;28;20418;-71
2023/04/01 01:02:47;;;;;;;15.38;9.20;;;;;;;;;;5085926;28;20424;-71
2023/04/01 01:05:15;;;;;;;13.02;8.65;;;;;;;;;;5086135;28;20066;-71
2023/04/01 01:07:46;;;;;;;12.02;8.48;;;;;;;;;;5086708;28;20047;-71
2023/04/01 01:10:19;;;;;;;12.52;8.73;;;;;;;;;;5085486;28;20055;-72
2023/04/01 01:12:47;;;;;;;13.15;8.95;;;;;;;;;;5088706;28;20529;-71
2023/04/01 01:15:18;;;;;;;12.40;9.23;;;;;;;;;;5077229;28;20052;-71
2023/04/01 01:17:51;;;;;;;13.02;8.52;;;;;;;;;;5058219;28;20102;-71
2023/04/01 01:20:31;;;;;;;9.57;7.50;;;;;;;;;;5066174;28;20522;-71
2023/04/01 01:23:15;;;;;;;11.80;9.20;;;;;;;;;;5089302;28;20052;-71
2023/04/01 01:25:50;;;;;;;12.57;8.88;;;;;;;;;;5086971;28;20050;-71
2023/04/01 01:28:24;;;;;;;14.68;9.43;;;;;;;;;;5065693;28;20321;-71
2023/04/01 01:30:58;;;;;;;12.88;9.52;;;;;;;;;;5082477;28;20053;-71
2023/04/01 01:33:39;;;;;;;12.30;9.02;;;;;;;;;;5067021;28;20052;-71
2023/04/01 01:36:08;;;;;;;12.68;9.48;;;;;;;;;;5085180;28;20116;-71
2023/04/01 01:38:36;;;;;;;13.23;9.07;;;;;;;;;;5090006;28;20410;-71
2023/04/01 01:41:05;;;;;;;16.08;9.90;;;;;;;;;;5086859;28;20098;-71
2023/04/01 01:43:36;;;;;;;12.95;9.18;;;;;;;;;;5081108;28;20059;-71
2023/04/01 01:46:06;;;;;;;11.70;8.82;;;;;;;;;;5088452;28;20376;-71
2023/04/01 01:48:36;;;;;;;16.58;9.98;;;;;;;;;;5086885;28;20051;-71
2023/04/01 01:51:03;;;;;;;13.77;10.15;;;;;;;;;;5088938;28;20112;-71
2023/04/01 01:53:32;;;;;;;15.23;10.02;;;;;;;;;;5083600;28;20048;-71
2023/04/01 01:55:59;;;;;;;16.42;9.85;;;;;;;;;;5069330;28;20135;-72
2023/04/01 01:58:29;;;;;;;12.75;9.48;;;;;;;;;;5085967;28;20398;-71
2023/04/01 02:00:57;;;;;;;11.90;9.68;;;;;;;;;;5064900;28;20056;-71
2023/04/01 02:03:26;;;;;;;13.27;10.07;;;;;;;;;;5086668;28;20056;-71
2023/04/01 02:05:55;;;;;;;14.45;10.32;;;;;;;;;;5085701;28;20056;-71
2023/04/01 02:08:24;;;;;;;11.95;9.55;;;;;;;;;;5084302;28;20456;-71
2023/04/01 02:10:57;;;;;;;15.20;10.98;;;;;;;;;;5069191;28;20374;-71
2023/04/01 02:13:26;;;;;;;16.60;11.67;;;;;;;;;;5082803;28;20075;-71
2023/04/01 02:15:55;;;;;;;17.67;10.90;;;;;;;;;;5087112;28;20286;-71
2023/04/01 02:18:24;;;;;;;18.15;11.43;;;;;;;;;;5080136;28;20063;-71
2023/04/01 02:20:52;;;;;;;22.10;12.48;;;;;;;;;;5081975;28;20079;-71
2023/04/01 02:23:19;;;;;;;15.70;11.30;;;;;;;;;;5086482;28;20498;-71
2023/04/01 02:25:47;;;;;;;16.92;11.70;;;;;;;;;;5087420;28;20098;-71
2023/04/01 02:28:19;;;;;;;18.45;12.52;;;;;;;;;;5085227;28;20047;-71
2023/04/01 02:30:47;;;;;;;18.00;12.18;;;;;;;;;;5070174;28;20538;-71
2023/04/01 02:33:14;;;;;;;17.40;12.45;;;;;;;;;;5083750;28;20047;-71
2023/04/01 02:35:42;;;;;;;18.52;12.60;;;;;;;;;;5074334;28;20185;-71
2023/04/01 02:38:09;;;;;;;16.83;12.10;;;;;;;;;;5079806;28;20462;-71
2023/04/01 02:40:47;;;;;;;18.50;12.93;;;;;;;;;;5081480;28;20113;-71
2023/04/01 02:43:16;;;;;;;15.27;11.25;;;;;;;;;;5081349;28;20052;-71
2023/04/01 02:45:43;;;;;;;17.38;11.65;;;;;;;;;;5055616;28;20487;-71
2023/04/01 02:48:12;;;;;;;19.23;13.02;;;;;;;;;;5060611;28;20545;-71
2023/04/01 02:50:40;;;;;;;18.77;12.55;;;;;;;;;;5084555;28;20052;-71
2023/04/01 02:53:07;;;;;;;15.55;11.23;;;;;;;;;;5065369;28;20169;-71
2023/04/01 02:55:35;;;;;;;19.23;11.98;;;;;;;;;;5084345;28;20052;-71
2023/04/01 02:58:02;;;;;;;15.52;12.45;;;;;;;;;;5067800;28;20142;-71
2023/04/01 03:00:31;;;;;;;18.25;12.40;;;;;;;;;;5083970;28;20071;-71
2023/04/01 03:02:58;;;;;;;16.48;11.52;;;;;;;;;;5084572;28;20101;-71
2023/04/01 03:05:26;;;;;;;16.85;11.70;;;;;;;;;;5059516;28;20060;-71
2023/04/01 03:07:53;;;;;;;15.80;11.50;;;;;;;;;;5088391;28;20044;-71
2023/04/01 03:10:20;;;;;;;14.93;11.25;;;;;;;;;;5078928;28;20128;-71
2023/04/01 03:12:48;;;;;;;17.92;12.27;;;;;;;;;;5080591;28;20071;-71
2023/04/01 03:15:15;;;;;;;14.90;11.85;;;;;;;;;;5079763;28;20411;-71
2023/04/01 03:17:44;;;;;;;18.58;12.02;;;;;;;;;;5062507;28;20055;-71
2023/04/01 03:20:12;;;;;;;15.57;10.82;;;;;;;;;;5081785;28;20050;-71
2023/04/01 03:22:40;;;;;;;15.23;11.73;;;;;;;;;;5069787;28;20056;-71
2023/04/01 03:25:08;;;;;;;16.80;11.95;;;;;;;;;;5086800;28;20048;-71
2023/04/01 03:27:36;;;;;;;20.13;12.80;;;;;;;;;;5082521;28;20043;-71
2023/04/01 03:30:03;;;;;;;18.58;12.15;;;;;;;;;;5086690;28;20051;-71
2023/04/01 03:32:30;;;;;;;20.20;11.70;;;;;;;;;;5083784;28;20048;-71
2023/04/01 03:34:59;;;;;;;16.33;10.65;;;;;;;;;;5065820;28;20059;-71
2023/04/01 03:37:26;;;;;;;14.07;9.93;;;;;;;;;;5062602;28;20071;-71
2023/04/01 03:39:53;;;;;;;12.85;9.38;;;;;;;;;;5067174;28;20051;-71
2023/04/01 03:42:20;;;;;;;13.52;9.70;;;;;;;;;;5066166;28;20052;-72
2023/04/01 03:44:48;;;;;;;17.45;10.60;;;;;;;;;;5087653;28;20040;-71
2023/04/01 03:47:15;;;;;;;17.40;10.50;;;;;;;;;;5084562;28;20098;-71
2023/04/01 03:49:42;;;;;;;16.10;11.23;;;;;;;;;;5067056;28;20048;-71
2023/04/01 03:52:12;;;;;;;24.23;12.75;;;;;;;;;;5084113;28;20499;-71
2023/04/01 03:54:39;;;;;;;15.68;9.68;;;;;;;;;;5084343;28;20118;-71
2023/04/01 03:57:07;;;;;;;16.27;9.23;;;;;;;;;;5065148;28;20063;-71
2023/04/01 03:59:34;;;;;;;15.00;9.77;;;;;;;;;;5086366;28;20079;-71
2023/04/01 04:02:02;;;;;;;17.15;10.40;;;;;;;;;;5085686;28;20044;-71
2023/04/01 04:04:29;;;;;;;14.35;10.50;;;;;;;;;;5071950;28;20058;-71
2023/04/01 04:06:57;;;;;;;20.55;12.73;;;;;;;;;;5068812;28;20091;-71
2023/04/01 04:09:25;;;;;;;25.77;13.43;;;;;;;;;;5090661;28;20405;-71
2023/04/01 04:11:53;;;;;;;22.88;13.90;;;;;;;;;;5063770;28;20055;-71
2023/04/01 04:14:20;;;;;;;24.05;13.00;;;;;;;;;;5089326;28;20047;-72
2023/04/01 04:16:47;;;;;;;23.88;14.43;;;;;;;;;;5090623;28;20052;-71
2023/04/01 04:19:15;;;;;;;23.50;14.57;;;;;;;;;;5072918;28;20536;-71
2023/04/01 04:21:42;;;;;;;24.75;15.48;;;;;;;;;;5082623;28;20047;-71
2023/04/01 04:24:10;;;;;;;25.23;15.00;;;;;;;;;;5085602;28;20048;-71
2023/04/01 04:26:38;;;;;;;26.40;15.40;;;;;;;;;;5088155;28;20450;-71
2023/04/01 04:29:06;;;;;;;27.42;16.88;;;;;;;;;;5088302;28;20086;-71
2023/04/01 04:31:33;;;;;;;35.03;16.55;;;;;;;;;;5072003;28;20044;-71
2023/04/01 04:34:01;;;;;;;29.98;16.58;;;;;;;;;;5070881;28;20075;-71
2023/04/01 04:36:28;;;;;;;27.08;16.30;;;;;;;;;;5088086;28;20122;-71
2023/04/01 04:38:57;;;;;;;27.88;16.02;;;;;;;;;;5086854;28;20411;-71
2023/04/01 04:41:25;;;;;;;28.23;16.25;;;;;;;;;;5087386;28;20487;-71
2023/04/01 04:43:55;;;;;;;27.83;16.77;;;;;;;;;;5086368;28;20062;-71
2023/04/01 04:46:22;;;;;;;29.00;16.25;;;;;;;;;;5089545;28;20048;-71
2023/04/01 04:48:50;;;;;;;26.15;15.73;;;;;;;;;;5085866;28;20058;-71
2023/04/01 04:51:17;;;;;;;34.38;17.35;;;;;;;;;;5087897;28;20411;-71
2023/04/01 04:53:44;;;;;;;27.42;16.80;;;;;;;;;;5070131;28;20403;-71
2023/04/01 04:56:12;;;;;;;25.67;15.98;;;;;;;;;;5084420;28;20069;-71
2023/04/01 04:58:40;;;;;;;27.48;16.23;;;;;;;;;;5085996;28;20040;-71
2023/04/01 05:01:10;;;;;;;36.55;18.45;;;;;;;;;;5069825;28;20398;-71
2023/04/01 05:03:37;;;;;;;28.10;16.92;;;;;;;;;;5089468;28;20048;-71
2023/04/01 05:06:05;;;;;;;30.08;16.83;;;;;;;;;;5086382;28;20048;-71
2023/04/01 05:08:33;;;;;;;32.05;17.80;;;;;;;;;;5085669;28;20399;-71
2023/04/01 05:11:01;;;;;;;36.08;18.10;;;;;;;;;;5081858;28;20048;-71
2023/04/01 05:13:28;;;;;;;28.33;17.73;;;;;;;;;;5088669;28;20051;-71
2023/04/01 05:15:56;;;;;;;25.55;16.17;;;;;;;;;;5087792;28;20048;-71
2023/04/01 05:18:24;;;;;;;25.65;16.05;;;;;;;;;;5071446;28;20052;-71
2023/04/01 05:20:53;;;;;;;30.65;17.90;;;;;;;;;;5089211;28;20052;-71
2023/04/01 05:23:21;;;;;;;32.15;17.25;;;;;;;;;;5085283;28;20052;-71
2023/04/01 05:25:49;;;;;;;33.53;19.33;;;;;;;;;;5069077;28;20040;-71
2023/04/01 05:28:16;;;;;;;28.80;18.55;;;;;;;;;;5088270;28;20419;-71
2023/04/01 05:30:44;;;;;;;34.13;17.90;;;;;;;;;;5081803;28;20090;-71
2023/04/01 05:33:12;;;;;;;31.90;17.65;;;;;;;;;;5065669;28;20048;-71
2023/04/01 05:35:41;;;;;;;29.33;18.02;;;;;;;;;;5085979;28;20416;-71
2023/04/01 05:38:08;;;;;;;32.00;18.98;;;;;;;;;;5068321;28;20450;-71
2023/04/01 05:40:35;;;;;;;32.35;17.85;;;;;;;;;;5085464;28;20056;-71
2023/04/01 05:43:02;;;;;;;31.05;18.48;;;;;;;;;;5088579;28;20052;-71
2023/04/01 05:45:30;;;;;;;37.15;18.70;;;;;;;;;;5061508;28;20505;-71
2023/04/01 05:47:57;;;;;;;28.75;18.33;;;;;;;;;;5089306;28;20047;-71
2023/04/01 05:50:24;;;;;;;29.13;18.88;;;;;;;;;;5088061;28;20052;-71
2023/04/01 05:52:53;;;;;;;38.63;19.70;;;;;;;;;;5071019;28;20052;-71
2023/04/01 05:55:20;;;;;;;37.30;20.25;;;;;;;;;;5069089;28;20067;-71
2023/04/01 05:57:49;;;;;;;30.00;19.48;;;;;;;;;;5081438;28;20048;-71
2023/04/01 06:00:19;;;;;;;34.67;19.60;;;;;;;;;;5081842;28;20413;-71
2023/04/01 06:02:47;;;;;;;34.97;19.33;;;;;;;;;;5068696;28;20059;-71
2023/04/01 06:05:17;;;;;;;31.60;19.65;;;;;;;;;;5085358;28;20044;-71
2023/04/01 06:07:44;;;;;;;31.80;18.73;;;;;;;;;;5085548;28;20136;-71
2023/04/01 06:10:15;;;;;;;38.78;19.13;;;;;;;;;;5077112;28;20402;-71
2023/04/01 06:12:53;;;;;;;42.28;19.83;;;;;;;;;;5083676;28;20422;-71
2023/04/01 06:15:23;;;;;;;35.17;18.73;;;;;;;;;;5079620;28;20484;-71
2023/04/01 06:18:02;;;;;;;38.80;18.00;;;;;;;;;;5082029;28;20071;-71
2023/04/01 06:20:33;;;;;;;29.80;15.50;;;;;;;;;;5087964;28;20075;-71
2023/04/01 06:23:08;;;;;;;29.90;15.38;;;;;;;;;;5086929;28;20062;-71
2023/04/01 06:25:44;;;;;;;25.38;14.25;;;;;;;;;;5085244;28;20052;-71
2023/04/01 06:28:37;;;;;;;30.10;14.45;;;;;;;;;;5084300;28;20059;-71
2023/04/01 06:31:07;;;;;;;25.45;14.15;;;;;;;;;;5086979;28;20095;-71
2023/04/01 06:33:45;;;;;;;27.63;14.85;;;;;;;;;;5063372;28;20055;-71
2023/04/01 06:36:17;;;;;;;24.92;14.48;;;;;;;;;;5062068;28;20529;-71
2023/04/01 06:38:50;;;;;;;24.33;13.27;;;;;;;;;;5063808;28;20052;-71
2023/04/01 06:41:29;;;;;;;32.05;16.02;;;;;;;;;;5083585;28;20050;-71
2023/04/01 06:44:00;;;;;;;27.60;16.75;;;;;;;;;;5083785;28;20097;-71
2023/04/01 06:46:32;;;;;;;39.35;19.13;;;;;;;;;;5086637;28;20495;-71
2023/04/01 06:49:06;;;;;;;38.50;19.25;;;;;;;;;;5085029;28;20044;-71
2023/04/01 06:51:38;;;;;;;31.88;18.15;;;;;;;;;;5087965;28;20055;-71
2023/04/01 06:54:07;;;;;;;34.20;19.65;;;;;;;;;;5085897;28;20040;-71
2023/04/01 06:56:38;;;;;;;32.13;19.23;;;;;;;;;;5087174;28;20055;-71
2023/04/01 06:59:07;;;;;;;32.10;18.92;;;;;;;;;;5085200;28;20040;-71
2023/04/01 07:01:35;;;;;;;34.28;19.98;;;;;;;;;;5085911;28;20040;-71
2023/04/01 07:04:06;;;;;;;38.50;21.23;;;;;;;;;;5066960;28;20052;-71
2023/04/01 07:06:36;;;;;;;41.75;22.70;;;;;;;;;;5086022;28;20040;-71
2023/04/01 07:09:06;;;;;;;65.90;29.00;;;;;;;;;;5083146;28;20392;-71
2023/04/01 07:11:35;;;;;;;56.95;27.52;;;;;;;;;;5064289;28;20064;-71
2023/04/01 07:14:06;;;;;;;49.08;21.60;;;;;;;;;;5065708;28;20869;-71
2023/04/01 07:16:34;;;;;;;51.60;22.05;;;;;;;;;;5057393;28;20055;-71
2023/04/01 07:19:03;;;;;;;51.13;22.05;;;;;;;;;;5067334;28;20056;-71
2023/04/01 07:21:34;;;;;;;56.75;22.85;;;;;;;;;;5065391;28;20045;-71
2023/04/01 07:24:04;;;;;;;63.95;23.80;;;;;;;;;;5063189;28;20056;-71
2023/04/01 07:26:32;;;;;;;64.47;22.58;;;;;;;;;;5065835;28;20064;-71
2023/04/01 07:28:59;;;;;;;59.15;23.55;;;;;;;;;;5065009;28;20045;-71
2023/04/01 07:31:43;;;;;;;58.28;21.80;;;;;;;;;;5065107;28;20668;-71
2023/04/01 07:34:10;;;;;;;;;;;;;;;;;;5068709;28;20139;-71
2023/04/01 07:36:40;;;;;;;36.45;17.67;;;;;;;;;;5070205;28;20393;-71
2023/04/01 07:39:14;;;;;;;38.72;17.58;;;;;;;;;;5069566;28;20052;-71
2023/04/01 07:41:49;;;;;;;37.95;18.40;;;;;;;;;;5068399;28;20049;-71
2023/04/01 07:44:20;;;;;;;47.22;19.80;;;;;;;;;;5066787;28;20052;-71
2023/04/01 07:47:05;;;;;;;44.85;19.77;;;;;;;;;;5069263;28;20060;-71
2023/04/01 07:49:37;;;;;;;45.25;19.77;;;;;;;;;;5065499;28;20049;-71
2023/04/01 07:52:08;;;;;;;39.78;19.10;;;;;;;;;;5068274;28;20077;-71
2023/04/01 07:54:40;;;;;;;37.47;17.58;;;;;;;;;;5071218;28;20055;-71
2023/04/01 07:57:11;;;;;;;43.90;17.80;;;;;;;;;;5067154;28;20052;-71
2023/04/01 07:59:43;;;;;;;43.15;17.55;;;;;;;;;;5062182;28;20055;-71
2023/04/01 08:02:22;;;;;;;39.22;15.93;;;;;;;;;;5069345;28;20048;-71
2023/04/01 08:04:56;;;;;;;26.02;14.55;;;;;;;;;;5066489;28;20091;-71
2023/04/01 08:07:24;;;;;;;23.92;11.85;;;;;;;;;;5064624;28;20053;-71
2023/04/01 08:09:54;;;;;;;19.42;10.35;;;;;;;;;;5061775;28;20098;-71
2023/04/01 08:12:29;;;;;;;14.95;8.50;;;;;;;;;;5075460;28;20052;-71
2023/04/01 08:15:00;;;;;;;18.70;6.47;;;;;;;;;;5087160;28;20047;-71
2023/04/01 08:17:33;;;;;;;20.23;7.35;;;;;;;;;;5086155;28;20056;-71
2023/04/01 08:20:12;;;;;;;12.88;6.18;;;;;;;;;;5070189;28;20048;-71
2023/04/01 08:22:42;;;;;;;14.48;5.38;;;;;;;;;;5067937;28;20054;-71
2023/04/01 08:25:15;;;;;;;14.10;3.88;;;;;;;;;;5072936;28;20075;-71
2023/04/01 08:27:45;;;;;;;6.57;3.00;;;;;;;;;;5086997;28;20059;-71
2023/04/01 08:30:18;;;;;;;11.00;3.15;;;;;;;;;;5072047;28;20044;-71
2023/04/01 08:32:49;;;;;;;6.03;2.50;;;;;;;;;;5088461;28;20044;-71
2023/04/01 08:35:19;;;;;;;9.32;2.40;;;;;;;;;;5072969;28;20130;-71
2023/04/01 08:37:47;;;;;;;11.50;2.63;;;;;;;;;;5086187;28;20044;-71
2023/04/01 08:40:32;;;;;;;10.07;1.88;;;;;;;;;;5070743;28;20057;-71
2023/04/01 08:43:05;;;;;;;8.05;2.30;;;;;;;;;;5085207;28;20055;-71
2023/04/01 08:45:44;;;;;;;7.82;2.10;;;;;;;;;;5064176;28;20052;-71
2023/04/01 08:48:35;;;;;;;15.63;2.53;;;;;;;;;;5089293;28;20051;-71
2023/04/01 08:51:20;;;;;;;9.98;2.38;;;;;;;;;;5067773;28;20040;-71
2023/04/01 08:54:05;;;;;;;5.53;2.03;;;;;;;;;;5086866;28;20040;-71
2023/04/01 08:56:35;;;;;;;11.45;2.42;;;;;;;;;;5064985;28;20057;-72
2023/04/01 08:59:17;;;;;;;11.98;2.55;;;;;;;;;;5078604;28;20048;-72
2023/04/01 09:01:59;;;;;;;10.13;2.92;;;;;;;;;;5070396;28;20039;-71
2023/04/01 09:04:47;;;;;;;11.25;2.80;;;;;;;;;;5064490;28;20052;-71
2023/04/01 09:07:24;;;;;;;13.98;3.35;;;;;;;;;;5052217;28;20177;-71
2023/04/01 09:10:08;;;;;;;14.07;3.83;;;;;;;;;;5082829;28;20048;-71
2023/04/01 09:12:44;;;;;;;8.43;3.13;;;;;;;;;;5077527;28;20143;-71
2023/04/01 09:15:38;;;;;;;12.52;3.33;;;;;;;;;;5084426;28;20127;-71
2023/04/01 09:18:14;;;;;;;16.92;3.15;;;;;;;;;;5029426;28;20079;-71
2023/04/01 09:20:56;;;;;;;8.07;2.33;;;;;;;;;;5086620;28;20491;-71
2023/04/01 09:23:35;;;;;;;6.85;2.10;;;;;;;;;;5068615;28;20869;-71
2023/04/01 09:26:15;;;;;;;6.90;2.20;;;;;;;;;;5089013;28;20036;-71
2023/04/01 09:28:44;;;;;;;6.30;2.35;;;;;;;;;;5078950;28;20048;-71
2023/04/01 09:31:20;;;;;;;7.07;1.90;;;;;;;;;;5068018;28;20514;-71
2023/04/01 09:34:11;;;;;;;11.32;2.63;;;;;;;;;;5088543;28;20055;-72
2023/04/01 09:36:45;;;;;;;12.32;2.75;;;;;;;;;;5087781;28;20052;-71
2023/04/01 09:39:26;;;;;;;12.57;2.17;;;;;;;;;;5086276;28;20559;-71
2023/04/01 09:41:59;;;;;;;6.43;1.83;;;;;;;;;;5070360;28;20052;-71
2023/04/01 09:44:33;;;;;;;9.23;2.35;;;;;;;;;;5082151;28;20052;-71
2023/04/01 09:47:07;;;;;;;10.57;2.50;;;;;;;;;;5062336;28;20055;-71
2023/04/01 09:49:43;;;;;;;7.57;2.40;;;;;;;;;;5082722;28;20048;-71
2023/04/01 09:52:15;;;;;;;7.18;2.30;;;;;;;;;;5083595;28;20051;-71
2023/04/01 09:54:51;;;;;;;9.18;2.60;;;;;;;;;;5080831;28;20837;-71
2023/04/01 09:57:31;;;;;;;10.60;3.00;;;;;;;;;;5063198;28;20337;-72
2023/04/01 10:00:12;;;;;;;9.52;2.60;;;;;;;;;;5082959;28;20048;-72
2023/04/01 10:02:57;;;;;;;12.77;2.60;;;;;;;;;;5086383;28;20097;-72
2023/04/01 10:05:34;;;;;;;9.40;2.47;;;;;;;;;;5075761;28;20055;-72
2023/04/01 10:08:28;;;;;;;6.05;2.00;;;;;;;;;;5081778;28;20407;-71
2023/04/01 10:11:13;;;;;;;7.72;1.95;;;;;;;;;;5039999;28;20075;-72
2023/04/01 10:13:59;;;;;;;7.25;2.08;;;;;;;;;;5078165;28;20078;-72
2023/04/01 10:16:45;;;;;;;9.85;2.00;;;;;;;;;;5081212;28;20047;-72
2023/04/01 10:19:36;;;;;;;12.75;2.60;;;;;;;;;;5058788;28;20048;-72
2023/04/01 10:22:23;;;;;;;7.25;2.25;;;;;;;;;;5083053;28;20048;-71
2023/04/01 10:25:06;;;;;;;9.75;2.70;;;;;;;;;;5078429;28;20057;-72
2023/04/01 10:27:46;;;;;;;6.72;2.25;;;;;;;;;;5077413;28;20051;-72
2023/04/01 10:30:31;;;;;;;9.88;2.30;;;;;;;;;;5055413;28;20051;-71
2023/04/01 10:33:32;;;;;;;8.25;2.30;;;;;;;;;;5060037;28;20052;-72
2023/04/01 10:36:23;;;;;;;9.80;2.10;;;;;;;;;;4992685;28;20076;-71
2023/04/01 10:39:10;;;;;;;5.45;1.65;;;;;;;;;;4986392;28;20592;-71
2023/04/01 10:41:51;;;;;;;3.80;1.08;;;;;;;;;;5060921;28;20059;-72
2023/04/01 10:44:51;;;;;;;7.20;1.50;;;;;;;;;;5080710;28;20071;-72
2023/04/01 10:47:36;;;;;;;8.82;2.72;;;;;;;;;;5081592;28;20044;-72
2023/04/01 10:50:18;;;;;;;5.32;1.52;;;;;;;;;;5083424;28;20048;-71
2023/04/01 10:53:03;;;;;;;9.55;1.80;;;;;;;;;;5081397;28;20395;-72
2023/04/01 10:55:39;;;;;;;7.18;1.50;;;;;;;;;;5065187;28;20059;-72
2023/04/01 10:58:24;;;;;;;5.38;2.08;;;;;;;;;;5065180;28;20149;-72
2023/04/01 11:01:05;;;;;;;5.72;1.70;;;;;;;;;;5082491;28;20521;-72
2023/04/01 11:03:47;;;;;;;5.57;1.60;;;;;;;;;;5076282;28;20490;-72
2023/04/01 11:06:35;;;;;;;5.90;1.73;;;;;;;;;;5084771;28;20040;-72
2023/04/01 11:09:21;;;;;;;8.85;1.70;;;;;;;;;;5066760;28;20390;-72
2023/04/01 11:12:09;;;;;;;7.60;1.98;;;;;;;;;;5062328;28;20054;-71
2023/04/01 11:14:57;;;;;;;10.82;1.52;;;;;;;;;;5086055;28;20062;-71
2023/04/01 11:17:48;;;;;;;10.55;1.83;;;;;;;;;;5083666;28;20075;-72
2023/04/01 11:20:43;;;;;;;4.70;1.52;;;;;;;;;;5084609;28;20459;-72
2023/04/01 11:23:20;;;;;;;6.75;1.58;;;;;;;;;;5078394;28;20043;-72
2023/04/01 11:25:55;;;;;;;4.22;1.30;;;;;;;;;;5081877;28;20040;-72
2023/04/01 11:28:35;;;;;;;8.23;1.60;;;;;;;;;;5079672;28;20411;-72
2023/04/01 11:31:11;;;;;;;10.40;1.40;;;;;;;;;;5082924;28;20040;-72
2023/04/01 11:33:40;;;;;;;10.35;1.33;;;;;;;;;;5082502;28;20128;-72
2023/04/01 11:36:13;;;;;;;7.90;1.15;;;;;;;;;;5084494;28;20048;-72
2023/04/01 11:39:02;;;;;;;5.53;1.27;;;;;;;;;;5086028;28;20048;-72
2023/04/01 11:41:34;;;;;;;7.05;1.30;;;;;;;;;;5074137;28;20080;-72
2023/04/01 11:44:20;;;;;;;7.32;1.50;;;;;;;;;;5065257;28;20044;-72
2023/04/01 11:46:55;;;;;;;5.22;1.30;;;;;;;;;;5081516;28;20054;-72
2023/04/01 11:49:31;;;;;;;5.50;1.40;;;;;;;;;;5066797;28;20583;-72
2023/04/01 11:52:13;;;;;;;6.93;1.30;;;;;;;;;;5077580;28;20051;-72
2023/04/01 11:54:55;;;;;;;7.03;1.17;;;;;;;;;;5083879;28;20071;-72
2023/04/01 11:57:37;;;;;;;7.00;1.70;;;;;;;;;;5063689;28;20052;-72
2023/04/01 12:00:15;;;;;;;6.10;1.75;;;;;;;;;;5076173;28;20048;-72
2023/04/01 12:02:49;;;;;;;10.18;1.75;;;;;;;;;;5059891;28;20084;-72
2023/04/01 12:05:28;;;;;;;7.80;1.58;;;;;;;;;;5079571;28;20059;-72
2023/04/01 12:08:03;;;;;;;8.48;1.40;;;;;;;;;;5085582;28;20048;-72
2023/04/01 12:10:35;;;;;;;5.15;1.20;;;;;;;;;;5085666;28;20052;-72
2023/04/01 12:13:06;;;;;;;4.00;1.33;;;;;;;;;;5081397;28;20143;-71
2023/04/01 12:15:40;;;;;;;6.72;1.30;;;;;;;;;;5080962;28;20062;-72
2023/04/01 12:18:13;;;;;;;7.85;1.95;;;;;;;;;;5085136;28;20047;-72
2023/04/01 12:20:45;;;;;;;5.28;1.40;;;;;;;;;;5080068;28;20131;-72
2023/04/01 12:23:20;;;;;;;6.45;1.33;;;;;;;;;;5085342;28;20044;-72
2023/04/01 12:26:01;;;;;;;5.97;1.55;;;;;;;;;;5069090;28;20169;-72
2023/04/01 12:28:38;;;;;;;5.50;1.52;;;;;;;;;;5083349;28;20487;-72
2023/04/01 12:31:15;;;;;;;4.88;1.38;;;;;;;;;;5069609;28;20084;-72
2023/04/01 12:33:53;;;;;;;4.78;1.25;;;;;;;;;;5064147;28;20434;-72
2023/04/01 12:36:25;;;;;;;8.48;1.35;;;;;;;;;;5085022;28;20404;-71
2023/04/01 12:39:01;;;;;;;4.90;1.20;;;;;;;;;;5089482;28;20471;-72
2023/04/01 12:41:31;;;;;;;6.40;1.02;;;;;;;;;;5065237;28;20557;-72
2023/04/01 12:44:07;;;;;;;4.20;0.95;;;;;;;;;;5087590;28;20394;-72
2023/04/01 12:46:42;;;;;;;5.60;1.30;;;;;;;;;;5068476;28;20084;-72
2023/04/01 12:49:29;;;;;;;9.02;1.25;;;;;;;;;;5069784;28;20135;-72
2023/04/01 12:52:06;;;;;;;5.68;1.30;;;;;;;;;;5085926;28;20048;-72
2023/04/01 12:54:51;;;;;;;6.00;1.30;;;;;;;;;;5081863;28;20130;-72
2023/04/01 12:57:26;;;;;;;5.97;1.30;;;;;;;;;;5085110;28;20048;-72
2023/04/01 13:00:00;;;;;;;6.18;1.10;;;;;;;;;;5085692;28;20052;-72
2023/04/01 13:02:34;;;;;;;7.07;1.42;;;;;;;;;;5066776;28;20051;-72
2023/04/01 13:05:01;;;;;;;;;;;;;;;;;;5068227;28;20501;-72
2023/04/01 13:07:39;;;;;;;8.65;1.50;;;;;;;;;;5063002;28;19919;-72
2023/04/01 13:10:14;;;;;;;5.60;1.48;;;;;;;;;;5080910;28;20487;-72
2023/04/01 13:12:53;;;;;;;8.07;1.63;;;;;;;;;;5085975;28;20678;-72
2023/04/01 13:15:25;;;;;;;6.70;1.38;;;;;;;;;;5062980;28;20127;-72
2023/04/01 13:17:55;;;;;;;4.30;0.90;;;;;;;;;;5087272;28;20051;-72
2023/04/01 13:20:27;;;;;;;6.72;1.50;;;;;;;;;;5082464;28;20051;-72
2023/04/01 13:23:01;;;;;;;9.32;1.52;;;;;;;;;;5085269;28;20479;-72
2023/04/01 13:25:36;;;;;;;7.03;1.60;;;;;;;;;;5085548;28;20048;-72
2023/04/01 13:28:07;;;;;;;6.13;1.20;;;;;;;;;;5082460;28;20106;-72
2023/04/01 13:30:36;;;;;;;5.95;1.15;;;;;;;;;;5075409;28;20040;-72
2023/04/01 13:33:08;;;;;;;7.38;1.25;;;;;;;;;;5087213;28;20052;-72
2023/04/01 13:35:40;;;;;;;6.05;1.30;;;;;;;;;;5085395;28;20048;-72
2023/04/01 13:38:17;;;;;;;5.32;1.38;;;;;;;;;;5064847;28;20105;-72
2023/04/01 13:40:50;;;;;;;4.13;1.20;;;;;;;;;;5087314;28;20048;-71
2023/04/01 13:43:20;;;;;;;3.92;1.10;;;;;;;;;;5058580;28;20055;-72
2023/04/01 13:46:10;;;;;;;3.42;1.23;;;;;;;;;;5067375;28;20443;-71
2023/04/01 13:48:46;;;;;;;5.35;1.27;;;;;;;;;;5084655;28;20404;-71
2023/04/01 13:51:40;;;;;;;4.28;1.10;;;;;;;;;;5088779;28;20058;-71
2023/04/01 13:54:22;;;;;;;4.13;1.20;;;;;;;;;;5046224;28;20106;-71
2023/04/01 13:56:52;;;;;;;2.70;1.10;;;;;;;;;;5088632;28;20048;-71
2023/04/01 13:59:34;;;;;;;6.47;1.67;;;;;;;;;;5082910;28;20044;-71
2023/04/01 14:02:09;;;;;;;4.78;1.40;;;;;;;;;;5081110;28;20043;-71
2023/04/01 14:04:47;;;;;;;3.03;0.98;;;;;;;;;;5086654;28;20051;-71
2023/04/01 14:07:25;;;;;;;5.47;1.20;;;;;;;;;;5085843;28;20058;-71
2023/04/01 14:10:06;;;;;;;5.82;1.45;;;;;;;;;;5083101;28;20046;-71
2023/04/01 14:12:38;;;;;;;7.50;1.30;;;;;;;;;;5087418;28;20058;-71
2023/04/01 14:15:21;;;;;;;3.17;1.10;;;;;;;;;;5067215;28;20092;-71
2023/04/01 14:17:54;;;;;;;6.03;1.48;;;;;;;;;;5065755;28;20050;-71
2023/04/01 14:20:21;;;;;;;;;;;;;;;;;;5085380;28;20060;-71
2023/04/01 14:22:57;;;;;;;5.35;1.20;;;;;;;;;;5081359;28;19920;-71
2023/04/01 14:25:32;;;;;;;2.15;0.95;;;;;;;;;;5085058;28;20119;-72
2023/04/01 14:28:05;;;;;;;9.77;1.40;;;;;;;;;;5078576;28;20097;-72
2023/04/01 14:30:37;;;;;;;7.68;1.98;;;;;;;;;;5083885;28;20072;-72
2023/04/01 14:33:08;;;;;;;3.25;1.20;;;;;;;;;;5083467;28;20051;-70
2023/04/01 14:35:39;;;;;;;11.25;1.85;;;;;;;;;;5079996;28;20055;-71
2023/04/01 14:38:39;;;;;;;5.60;1.90;;;;;;;;;;5081230;28;20395;-69
2023/04/01 14:41:13;;;;;;;5.07;1.38;;;;;;;;;;5003187;28;20144;-71
2023/04/01 14:43:48;;;;;;;4.32;1.52;;;;;;;;;;5063609;28;20067;-71
2023/04/01 14:46:27;;;;;;;6.88;1.50;;;;;;;;;;5077316;28;20051;-71
2023/04/01 14:48:57;;;;;;;8.57;1.95;;;;;;;;;;5084114;28;20059;-71
2023/04/01 14:51:30;;;;;;;7.72;2.22;;;;;;;;;;5065344;28;20537;-71
2023/04/01 14:54:01;;;;;;;9.98;2.50;;;;;;;;;;5084568;28;20052;-71
2023/04/01 14:56:38;;;;;;;10.40;2.35;;;;;;;;;;5070563;28;20490;-71
2023/04/01 14:59:08;;;;;;;8.77;2.97;;;;;;;;;;5081844;28;20051;-71
2023/04/01 15:01:42;;;;;;;12.25;3.38;;;;;;;;;;5085154;28;20047;-71
2023/04/01 15:04:09;;;;;;;;;;;;;;;;;;5064602;28;20426;-71
2023/04/01 15:06:48;;;;;;;10.85;2.78;;;;;;;;;;5085187;28;19927;-71